createdAt,value
2018-08-04T00:01:53.499Z,99.90
2018-08-04T00:04:21.989Z,99.90
2018-08-04T00:06:50.469Z,99.90
2018-08-04T00:09:18.965Z,99.90
2018-08-04T00:11:47.431Z,99.90
2018-08-04T00:14:15.937Z,99.90
2018-08-04T00:16:44.410Z,99.90
2018-08-04T00:19:12.910Z,99.90
2018-08-04T00:21:41.761Z,99.90
2018-08-04T00:24:10.461Z,99.90
2018-08-04T00:26:38.999Z,99.90
2018-08-04T00:29:07.473Z,99.90
2018-08-04T00:31:36.042Z,99.90
2018-08-04T00:34:04.505Z,99.90
2018-08-04T00:36:32.967Z,99.90
2018-08-04T00:39:01.479Z,99.90
2018-08-04T00:41:29.997Z,99.90
2018-08-04T00:43:58.709Z,99.90
2018-08-04T00:46:27.387Z,99.90
2018-08-04T00:48:56.167Z,99.90
2018-08-04T00:51:24.669Z,99.90
2018-08-04T00:53:53.223Z,99.90
2018-08-04T00:56:21.777Z,99.90
2018-08-04T00:58:50.256Z,99.90
2018-08-04T01:01:18.818Z,99.90
2018-08-04T01:03:47.408Z,99.90
2018-08-04T01:06:15.953Z,99.90
2018-08-04T01:08:44.490Z,99.90
2018-08-04T01:11:13.052Z,99.90
2018-08-04T01:13:41.715Z,99.90
2018-08-04T01:16:10.226Z,99.90
2018-08-04T01:18:38.751Z,99.90
2018-08-04T01:21:07.204Z,99.90
2018-08-04T01:23:35.708Z,99.90
2018-08-04T01:26:04.237Z,99.90
2018-08-04T01:28:32.842Z,99.90
2018-08-04T01:31:01.357Z,99.90
2018-08-04T01:33:30.060Z,99.90
2018-08-04T01:35:58.578Z,99.90
2018-08-04T01:38:27.179Z,99.90
2018-08-04T01:40:55.819Z,99.90
2018-08-04T01:43:24.321Z,99.90
2018-08-04T01:45:52.917Z,99.90
2018-08-04T01:48:21.430Z,99.90
2018-08-04T01:50:49.903Z,99.90
2018-08-04T01:53:18.403Z,99.90
2018-08-04T01:55:46.852Z,99.90
2018-08-04T01:58:15.297Z,99.90
2018-08-04T02:00:43.875Z,99.90
2018-08-04T02:03:12.387Z,99.90
2018-08-04T02:05:41.532Z,99.90
2018-08-04T02:10:38.173Z,99.90
2018-08-04T02:13:06.613Z,99.90
2018-08-04T02:15:35.456Z,99.90
2018-08-04T02:18:03.918Z,99.90
2018-08-04T02:23:00.590Z,99.90
2018-08-04T02:25:29.008Z,99.90
2018-08-04T02:27:58.327Z,99.90
2018-08-04T02:30:26.814Z,99.90
2018-08-04T02:32:55.286Z,99.90
2018-08-04T02:35:23.926Z,99.90
2018-08-04T02:37:52.355Z,99.90
2018-08-04T02:40:20.937Z,99.90
2018-08-04T02:42:49.409Z,99.90
2018-08-04T02:45:17.821Z,99.90
2018-08-04T02:50:14.472Z,99.90
2018-08-04T02:52:43.002Z,99.90
2018-08-04T02:55:11.461Z,99.90
2018-08-04T02:57:39.906Z,99.90
2018-08-04T03:00:08.439Z,99.90
2018-08-04T03:02:36.937Z,99.90
2018-08-04T03:05:06.211Z,99.90
2018-08-04T03:07:34.641Z,99.90
2018-08-04T03:10:03.282Z,99.90
2018-08-04T03:12:31.761Z,99.90
2018-08-04T03:15:07.004Z,99.90
2018-08-04T03:17:35.519Z,99.90
2018-08-04T03:20:04.100Z,99.90
2018-08-04T03:22:32.628Z,99.90
2018-08-04T03:25:01.118Z,99.90
2018-08-04T03:27:29.508Z,99.90
2018-08-04T03:29:58.007Z,99.90
2018-08-04T03:32:26.538Z,99.90
2018-08-04T03:37:24.132Z,99.90
2018-08-04T03:39:53.014Z,99.90
2018-08-04T03:44:49.682Z,99.90
2018-08-04T03:47:18.200Z,99.90
2018-08-04T03:49:46.666Z,99.90
2018-08-04T03:52:15.191Z,99.90
2018-08-04T03:54:43.645Z,99.90
2018-08-04T03:57:12.545Z,99.90
2018-08-04T03:59:41.713Z,99.90
2018-08-04T04:02:10.326Z,99.90
2018-08-04T04:04:38.810Z,99.90
2018-08-04T04:07:07.958Z,99.90
2018-08-04T04:09:36.433Z,99.90
2018-08-04T04:12:04.974Z,99.90
2018-08-04T04:14:33.448Z,99.90
2018-08-04T04:17:01.951Z,99.90
2018-08-04T04:19:30.404Z,99.90
2018-08-04T04:21:58.902Z,99.90
2018-08-04T04:24:27.470Z,99.90
2018-08-04T04:26:56.141Z,99.90
2018-08-04T04:29:24.674Z,99.90
2018-08-04T04:34:21.286Z,99.90
2018-08-04T04:36:49.733Z,99.90
2018-08-04T04:39:18.269Z,99.90
2018-08-04T04:41:46.690Z,99.90
2018-08-04T04:44:15.149Z,99.90
2018-08-04T04:49:13.133Z,99.90
2018-08-04T04:54:11.042Z,99.90
2018-08-04T04:56:39.486Z,99.90
2018-08-04T04:59:07.995Z,99.90
2018-08-04T05:01:36.512Z,99.90
2018-08-04T05:04:04.997Z,99.90
2018-08-04T05:06:33.457Z,99.90
2018-08-04T05:09:02.158Z,99.90
2018-08-04T05:11:30.606Z,99.90
2018-08-04T05:13:59.096Z,99.90
2018-08-04T05:16:27.610Z,99.90
2018-08-04T05:18:56.141Z,99.90
2018-08-04T05:26:21.089Z,99.90
2018-08-04T05:28:49.678Z,99.90
2018-08-04T05:31:18.218Z,99.90
2018-08-04T05:33:46.652Z,99.90
2018-08-04T05:36:15.178Z,99.90
2018-08-04T05:38:43.731Z,99.90
2018-08-04T05:41:12.413Z,99.90
2018-08-04T05:43:40.912Z,99.90
2018-08-04T05:46:09.640Z,99.90
2018-08-04T05:48:38.182Z,99.90
2018-08-04T05:51:07.109Z,99.90
2018-08-04T05:53:35.549Z,99.90
2018-08-04T05:56:04.016Z,99.90
2018-08-04T05:58:32.450Z,99.90
2018-08-04T06:03:29.231Z,99.90
2018-08-04T06:05:57.717Z,99.90
2018-08-04T06:08:26.402Z,99.90
2018-08-04T06:10:54.887Z,99.90
2018-08-04T06:13:24.623Z,99.90
2018-08-04T06:15:53.386Z,99.90
2018-08-04T06:18:21.776Z,99.90
2018-08-04T06:20:50.259Z,99.90
2018-08-04T06:23:18.938Z,99.90
2018-08-04T06:25:47.721Z,99.90
2018-08-04T06:28:16.520Z,99.90
2018-08-04T06:30:45.133Z,99.90
2018-08-04T06:33:14.135Z,99.90
2018-08-04T06:35:42.609Z,99.90
2018-08-04T06:38:11.070Z,99.90
2018-08-04T06:40:39.610Z,99.90
2018-08-04T06:43:08.116Z,99.90
2018-08-04T06:45:37.373Z,99.90
2018-08-04T06:48:05.938Z,99.90
2018-08-04T06:50:34.513Z,99.90
2018-08-04T06:53:03.013Z,99.90
2018-08-04T06:55:31.751Z,99.90
2018-08-04T06:58:00.260Z,99.90
2018-08-04T07:00:28.995Z,99.90
2018-08-04T07:02:57.509Z,99.90
2018-08-04T07:05:26.063Z,99.90
2018-08-04T07:07:54.647Z,99.90
2018-08-04T07:10:23.153Z,99.90
2018-08-04T07:12:52.558Z,99.90
2018-08-04T07:15:21.738Z,99.90
2018-08-04T07:17:50.219Z,99.90
2018-08-04T07:20:18.700Z,99.90
2018-08-04T07:22:47.271Z,99.90
2018-08-04T07:25:15.771Z,99.90
2018-08-04T07:27:44.285Z,99.90
2018-08-04T07:30:14.461Z,99.90
2018-08-04T07:32:44.377Z,99.90
2018-08-04T07:35:12.936Z,99.90
2018-08-04T07:37:42.744Z,99.90
2018-08-04T07:42:40.130Z,99.90
2018-08-04T07:47:37.102Z,99.90
2018-08-04T07:52:33.789Z,99.90
2018-08-04T07:55:02.326Z,99.90
2018-08-04T07:57:30.855Z,99.90
2018-08-04T07:59:59.649Z,99.90
2018-08-04T08:02:28.321Z,99.90
2018-08-04T08:04:56.997Z,99.90
2018-08-04T08:07:26.252Z,99.90
2018-08-04T08:09:55.482Z,99.90
2018-08-04T08:12:24.204Z,99.90
2018-08-04T08:14:53.048Z,99.90
2018-08-04T08:17:21.644Z,99.90
2018-08-04T08:19:50.139Z,99.90
2018-08-04T08:22:18.612Z,99.90
2018-08-04T08:24:47.254Z,99.90
2018-08-04T08:27:17.818Z,99.90
2018-08-04T08:29:46.463Z,99.90
2018-08-04T08:32:15.054Z,99.90
2018-08-04T08:39:40.160Z,99.70
2018-08-04T08:42:08.816Z,99.10
2018-08-04T08:44:37.385Z,98.00
2018-08-04T08:47:06.478Z,97.50
2018-08-04T08:49:35.080Z,96.90
2018-08-04T08:52:03.667Z,96.30
2018-08-04T08:54:33.318Z,96.30
2018-08-04T08:57:01.843Z,96.00
2018-08-04T08:59:30.554Z,96.00
2018-08-04T09:01:59.035Z,95.00
2018-08-04T09:04:27.606Z,95.40
2018-08-04T09:06:56.142Z,95.40
2018-08-04T09:09:24.626Z,94.70
2018-08-04T09:11:53.116Z,93.20
2018-08-04T09:14:21.604Z,92.50
2018-08-04T09:19:18.883Z,92.90
2018-08-04T09:21:47.414Z,92.30
2018-08-04T09:24:15.932Z,92.20
2018-08-04T09:26:44.661Z,91.20
2018-08-04T09:29:13.149Z,90.30
2018-08-04T09:31:41.825Z,90.50
2018-08-04T09:34:10.371Z,90.00
2018-08-04T09:39:10.115Z,89.70
2018-08-04T09:41:39.072Z,88.10
2018-08-04T09:44:07.539Z,87.00
2018-08-04T09:46:36.047Z,86.20
2018-08-04T09:51:32.815Z,83.90
2018-08-04T09:54:01.427Z,84.60
2018-08-04T09:56:30.141Z,84.70
2018-08-04T09:59:05.264Z,83.90
2018-08-04T10:01:35.791Z,81.60
2018-08-04T10:04:05.363Z,81.30
2018-08-04T10:06:34.051Z,79.70
2018-08-04T10:09:02.671Z,78.10
2018-08-04T10:11:31.166Z,77.50
2018-08-04T10:13:59.736Z,77.10
2018-08-04T10:16:28.375Z,77.70
2018-08-04T10:18:56.843Z,74.30
2018-08-04T10:21:25.415Z,74.10
2018-08-04T10:23:53.856Z,73.70
2018-08-04T10:26:22.341Z,72.20
2018-08-04T10:28:51.017Z,73.20
2018-08-04T10:31:19.478Z,69.00
2018-08-04T10:33:48.003Z,66.50
2018-08-04T10:36:16.462Z,68.70
2018-08-04T10:38:45.010Z,68.60
2018-08-04T10:43:41.699Z,64.50
2018-08-04T10:46:10.337Z,64.70
2018-08-04T10:48:38.823Z,62.10
2018-08-04T10:51:07.346Z,60.70
2018-08-04T10:53:36.014Z,60.00
2018-08-04T10:56:04.546Z,56.70
2018-08-04T10:58:33.635Z,57.00
2018-08-04T11:01:02.199Z,58.70
2018-08-04T11:03:31.291Z,54.40
2018-08-04T11:06:00.091Z,57.00
2018-08-04T11:08:28.657Z,55.70
2018-08-04T11:10:57.192Z,55.90
2018-08-04T11:13:25.882Z,57.50
2018-08-04T11:15:54.623Z,57.00
2018-08-04T11:18:23.177Z,57.20
2018-08-04T11:20:51.984Z,51.50
2018-08-04T11:23:20.466Z,49.70
2018-08-04T11:25:49.186Z,49.10
2018-08-04T11:28:17.627Z,46.80
2018-08-04T11:30:46.355Z,47.20
2018-08-04T11:33:14.819Z,47.70
2018-08-04T11:35:43.237Z,49.50
2018-08-04T11:38:11.721Z,48.00
2018-08-04T11:40:40.364Z,48.20
2018-08-04T11:43:08.953Z,47.80
2018-08-04T11:45:37.737Z,48.90
2018-08-04T11:48:06.302Z,49.10
2018-08-04T11:50:34.786Z,49.40
2018-08-04T11:53:03.367Z,49.60
2018-08-04T11:55:31.817Z,49.90
2018-08-04T11:58:00.352Z,49.40
2018-08-04T12:00:28.825Z,49.70
2018-08-04T12:02:57.343Z,50.30
2018-08-04T12:05:25.849Z,50.60
2018-08-04T12:07:54.317Z,49.50
2018-08-04T12:12:51.093Z,49.30
2018-08-04T12:15:19.622Z,49.40
2018-08-04T12:17:48.155Z,49.60
2018-08-04T12:20:16.750Z,49.50
2018-08-04T12:22:45.286Z,50.50
2018-08-04T12:25:14.035Z,49.80
2018-08-04T12:27:42.596Z,50.70
2018-08-04T12:30:11.164Z,50.90
2018-08-04T12:32:40.201Z,51.20
2018-08-04T12:35:09.398Z,50.70
2018-08-04T12:37:37.988Z,50.50
2018-08-04T12:40:06.787Z,50.50
2018-08-04T12:45:04.224Z,50.80
2018-08-04T12:47:32.773Z,50.60
2018-08-04T12:50:01.290Z,50.10
2018-08-04T12:52:29.919Z,49.30
2018-08-04T12:54:58.371Z,48.70
2018-08-04T12:57:26.983Z,48.40
2018-08-04T12:59:55.997Z,47.90
2018-08-04T13:02:24.427Z,47.80
2018-08-04T13:04:52.913Z,47.80
2018-08-04T13:07:21.415Z,47.50
2018-08-04T13:09:49.894Z,47.20
2018-08-04T13:12:18.550Z,47.30
2018-08-04T13:14:47.269Z,47.10
2018-08-04T13:17:15.929Z,46.90
2018-08-04T13:19:44.428Z,49.00
2018-08-04T13:22:12.951Z,49.70
2018-08-04T13:27:09.658Z,50.60
2018-08-04T13:29:38.214Z,50.90
2018-08-04T13:34:34.883Z,51.80
2018-08-04T13:37:03.647Z,52.70
2018-08-04T13:42:00.360Z,53.00
2018-08-04T13:44:28.923Z,53.60
2018-08-04T13:46:57.441Z,53.90
2018-08-04T13:49:26.039Z,54.10
2018-08-04T13:51:54.559Z,54.00
2018-08-04T13:54:23.044Z,54.00
2018-08-04T13:56:51.506Z,53.70
2018-08-04T14:01:48.748Z,54.80
2018-08-04T14:04:17.310Z,54.20
2018-08-04T14:06:45.782Z,53.90
2018-08-04T14:09:14.182Z,53.60
2018-08-04T14:11:42.663Z,53.30
2018-08-04T14:14:11.094Z,53.10
2018-08-04T14:16:39.587Z,52.30
2018-08-04T14:19:08.277Z,51.70
2018-08-04T14:21:37.301Z,51.80
2018-08-04T14:24:06.036Z,51.60
2018-08-04T14:26:34.827Z,52.40
2018-08-04T14:29:03.336Z,52.20
2018-08-04T14:31:31.865Z,52.10
2018-08-04T14:36:28.860Z,52.10
2018-08-04T14:38:57.335Z,51.90
2018-08-04T14:41:26.144Z,51.80
2018-08-04T14:43:54.683Z,51.70
2018-08-04T14:46:23.291Z,51.70
2018-08-04T14:48:51.801Z,51.40
2018-08-04T14:51:20.314Z,51.70
2018-08-04T14:56:18.599Z,52.50
2018-08-04T14:58:47.117Z,51.80
2018-08-04T15:01:15.629Z,52.50
2018-08-04T15:03:44.249Z,51.50
2018-08-04T15:06:12.982Z,51.90
2018-08-04T15:08:41.479Z,51.50
2018-08-04T15:11:09.933Z,51.40
2018-08-04T15:21:03.357Z,51.40
2018-08-04T15:23:32.140Z,50.90
2018-08-04T15:26:01.444Z,50.70
2018-08-04T15:28:29.995Z,50.70
2018-08-04T15:33:27.249Z,50.60
2018-08-04T15:38:25.335Z,50.80
2018-08-04T15:40:53.877Z,50.60
2018-08-04T15:43:23.057Z,51.20
2018-08-04T15:45:51.535Z,51.60
2018-08-04T15:48:20.240Z,51.50
2018-08-04T15:50:48.902Z,51.30
2018-08-04T15:53:17.408Z,51.30
2018-08-04T15:55:46.315Z,51.30
2018-08-04T15:58:14.841Z,51.50
2018-08-04T16:00:43.466Z,51.90
2018-08-04T16:03:11.949Z,53.00
2018-08-04T16:05:40.485Z,52.60
2018-08-04T16:10:37.476Z,53.60
2018-08-04T16:13:05.991Z,54.00
2018-08-04T16:15:34.622Z,54.30
2018-08-04T16:20:31.367Z,54.50
2018-08-04T16:25:28.058Z,54.50
2018-08-04T16:27:56.743Z,54.20
2018-08-04T16:30:25.581Z,54.20
2018-08-04T16:32:54.146Z,53.80
2018-08-04T16:35:22.986Z,53.90
2018-08-04T16:37:51.546Z,53.30
2018-08-04T16:40:20.089Z,53.10
2018-08-04T16:42:48.756Z,53.20
2018-08-04T16:45:17.404Z,53.30
2018-08-04T16:47:45.871Z,53.60
2018-08-04T16:50:14.587Z,52.70
2018-08-04T16:55:11.585Z,52.20
2018-08-04T16:57:40.205Z,52.30
2018-08-04T17:00:09.065Z,52.50
2018-08-04T17:02:37.566Z,53.20
2018-08-04T17:05:06.219Z,52.90
2018-08-04T17:07:34.797Z,52.80
2018-08-04T17:10:03.375Z,53.10
2018-08-04T17:12:31.875Z,53.40
2018-08-04T17:15:00.524Z,53.40
2018-08-04T17:17:29.317Z,53.90
2018-08-04T17:22:26.030Z,54.20
2018-08-04T17:24:54.660Z,54.20
2018-08-04T17:27:23.201Z,54.30
2018-08-04T17:29:51.709Z,54.40
2018-08-04T17:32:20.392Z,54.30
2018-08-04T17:34:48.872Z,54.50
2018-08-04T17:37:17.487Z,54.60
2018-08-04T17:39:45.948Z,55.00
2018-08-04T17:42:14.494Z,55.10
2018-08-04T17:44:43.310Z,55.40
2018-08-04T17:47:11.847Z,55.30
2018-08-04T17:49:40.551Z,55.40
2018-08-04T17:52:09.054Z,55.50
2018-08-04T17:54:37.788Z,55.80
2018-08-04T17:57:06.534Z,55.90
2018-08-04T17:59:35.067Z,56.10
2018-08-04T18:02:03.863Z,56.30
2018-08-04T18:04:32.407Z,56.90
2018-08-04T18:07:00.961Z,56.90
2018-08-04T18:09:29.565Z,57.20
2018-08-04T18:11:58.200Z,57.10
2018-08-04T18:14:26.798Z,57.30
2018-08-04T18:16:55.291Z,57.20
2018-08-04T18:19:23.886Z,57.50
2018-08-04T18:21:52.382Z,57.90
2018-08-04T18:24:21.901Z,58.30
2018-08-04T18:26:50.460Z,58.40
2018-08-04T18:31:47.162Z,59.80
2018-08-04T18:34:15.851Z,59.60
2018-08-04T18:36:44.326Z,60.10
2018-08-04T18:39:13.024Z,60.30
2018-08-04T18:41:41.588Z,61.40
2018-08-04T18:44:10.067Z,61.80
2018-08-04T18:46:38.559Z,61.80
2018-08-04T18:49:07.341Z,62.20
2018-08-04T18:51:35.848Z,62.80
2018-08-04T18:54:04.369Z,62.70
2018-08-04T18:59:01.401Z,63.00
2018-08-04T19:01:30.242Z,62.80
2018-08-04T19:03:58.829Z,63.10
2018-08-04T19:06:27.337Z,63.30
2018-08-04T19:08:56.323Z,63.90
2018-08-04T19:11:26.232Z,64.90
2018-08-04T19:13:56.225Z,65.10
2018-08-04T19:16:24.718Z,65.20
2018-08-04T19:18:53.275Z,66.40
2018-08-04T19:23:50.195Z,67.00
2018-08-04T19:26:18.673Z,67.90
2018-08-04T19:28:47.205Z,68.20
2018-08-04T19:33:44.021Z,68.90
2018-08-04T19:36:12.915Z,69.30
2018-08-04T19:38:41.564Z,69.50
2018-08-04T19:41:10.294Z,70.20
2018-08-04T19:43:39.005Z,70.60
2018-08-04T19:46:07.987Z,71.80
2018-08-04T19:48:36.834Z,72.10
2018-08-04T19:51:05.670Z,73.00
2018-08-04T19:53:34.166Z,72.70
2018-08-04T19:56:02.686Z,72.10
2018-08-04T19:58:31.249Z,72.70
2018-08-04T20:00:59.751Z,73.40
2018-08-04T20:03:28.301Z,73.60
2018-08-04T20:05:56.813Z,74.30
2018-08-04T20:08:25.370Z,75.00
2018-08-04T20:10:53.818Z,75.00
2018-08-04T20:13:22.360Z,75.10
2018-08-04T20:15:50.841Z,76.20
2018-08-04T20:18:19.432Z,76.70
2018-08-04T20:20:47.910Z,77.60
2018-08-04T20:23:16.437Z,78.20
2018-08-04T20:25:45.093Z,79.00
2018-08-04T20:28:13.741Z,79.00
2018-08-04T20:30:42.244Z,80.20
2018-08-04T20:33:11.043Z,80.90
2018-08-04T20:35:39.618Z,81.20
2018-08-04T20:38:08.126Z,82.00
2018-08-04T20:40:36.806Z,82.50
2018-08-04T20:43:05.575Z,81.70
2018-08-04T20:45:34.255Z,81.10
2018-08-04T20:48:02.890Z,81.50
2018-08-04T20:50:31.361Z,82.60
2018-08-04T20:52:59.902Z,83.50
2018-08-04T20:55:28.495Z,83.90
2018-08-04T20:57:57.194Z,84.40
2018-08-04T21:00:25.750Z,84.70
2018-08-04T21:02:54.233Z,85.90
2018-08-04T21:05:23.101Z,86.20
2018-08-04T21:10:19.834Z,89.70
2018-08-04T21:12:48.348Z,90.00
2018-08-04T21:15:16.830Z,89.40
2018-08-04T21:17:45.306Z,90.20
2018-08-04T21:20:13.786Z,90.60
2018-08-04T21:22:42.343Z,90.70
2018-08-04T21:25:10.838Z,91.10
2018-08-04T21:27:39.318Z,90.90
2018-08-04T21:30:07.883Z,90.50
2018-08-04T21:32:36.373Z,90.50
2018-08-04T21:35:04.862Z,90.90
2018-08-04T21:40:01.614Z,90.70
2018-08-04T21:44:58.325Z,91.20
2018-08-04T21:47:26.797Z,91.30
2018-08-04T21:49:55.229Z,91.90
2018-08-04T21:52:23.817Z,91.80
2018-08-04T21:57:20.845Z,92.40
2018-08-04T21:59:49.423Z,93.30
2018-08-04T22:02:18.102Z,93.60
2018-08-04T22:04:46.566Z,93.60
2018-08-04T22:07:51.765Z,94.40
2018-08-04T22:10:20.211Z,94.40
2018-08-04T22:12:48.737Z,94.00
2018-08-04T22:17:46.057Z,94.00
2018-08-04T22:20:16.753Z,93.90
2018-08-04T22:22:45.544Z,94.00
2018-08-04T22:25:16.287Z,94.00
2018-08-04T22:27:44.840Z,94.40
2018-08-04T22:30:16.721Z,94.70
2018-08-04T22:32:46.050Z,94.60
2018-08-04T22:35:14.578Z,94.30
2018-08-04T22:37:43.381Z,94.50
2018-08-04T22:40:13.110Z,94.50
2018-08-04T22:42:42.011Z,94.60
2018-08-04T22:45:54.418Z,95.10
2018-08-04T22:48:23.519Z,95.40
2018-08-04T22:50:52.092Z,94.20
2018-08-04T22:53:20.622Z,94.40
2018-08-04T22:55:49.135Z,93.80
2018-08-04T23:00:46.059Z,93.70
2018-08-04T23:03:15.121Z,94.50
2018-08-04T23:05:43.594Z,94.90
2018-08-04T23:08:13.022Z,95.00
2018-08-04T23:10:42.072Z,95.40
2018-08-04T23:15:39.594Z,96.30
2018-08-04T23:18:08.590Z,96.20
2018-08-04T23:20:37.236Z,96.80
2018-08-04T23:23:06.043Z,96.20
2018-08-04T23:25:34.585Z,96.80
2018-08-04T23:28:03.105Z,97.70
2018-08-04T23:30:31.900Z,97.10
2018-08-04T23:33:00.393Z,97.00
2018-08-04T23:35:29.116Z,97.40
2018-08-04T23:37:57.788Z,97.30
2018-08-04T23:40:26.457Z,97.30
2018-08-04T23:42:55.080Z,97.30
2018-08-04T23:45:23.465Z,97.10
2018-08-04T23:50:20.326Z,96.90
2018-08-04T23:52:48.782Z,97.20
2018-08-04T23:55:17.277Z,96.70
2018-08-04T23:57:45.714Z,96.90
